Data for 02/22/2008

Time Sea-Level Adjusted Pressure Absolute Pressure Temperature Relative Humidity Dew Point   
(mb) (inHg) (mb) (inHg) (C) (F) (%) (C) (F)
00:05 1010 29.83 839 24.78 -1.3 29.6 54 -9.5 14.8
00:10 1010 29.83 839 24.78 -1.3 29.6 54 -9.5 14.9
00:15 1010 29.83 839 24.78 -1.4 29.5 54 -9.6 14.7
00:20 1010 29.83 839 24.78 -1.2 29.8 53 -9.6 14.6
00:25 1010 29.83 839 24.78 -1.2 29.8 53 -9.6 14.6
00:30 1010 29.83 839 24.78 -1.1 30 53 -9.6 14.7
00:35 1010 29.83 839 24.78 -1.1 30 53 -9.6 14.7
00:40 1010 29.83 839 24.78 -1 30.2 52 -9.8 14.4
00:45 1010 29.83 839 24.78 -1 30.2 52 -9.7 14.5
00:50 1010 29.83 839 24.78 -1.2 29.9 52 -9.7 14.6
00:55 1010 29.83 839 24.78 -1.5 29.3 54 -9.7 14.5
01:00 1010 29.83 839 24.78 -1.7 29 53 -10 14
01:05 1010 29.83 839 24.78 -1.6 29.1 53 -9.9 14.1
01:10 1010 29.83 839 24.78 -1.3 29.6 51 -10.1 13.7
01:15 1010 29.83 839 24.78 -1.3 29.6 52 -9.8 14.3
01:20 1010 29.83 839 24.78 -1.6 29.2 53 -9.9 14.2
01:25 1010 29.83 839 24.78 -1.8 28.7 55 -9.7 14.6
01:30 1010 29.83 839 24.78 -2 28.4 54 -10 14
01:35 1010 29.83 839 24.78 -2.2 28 55 -10 14.1
01:40 1010 29.83 839 24.78 -2.1 28.2 55 -9.9 14.1
01:45 1010 29.83 839 24.78 -2.3 27.8 56 -9.9 14.2
01:50 1010 29.83 839 24.78 -2.1 28.3 54 -10.2 13.7
01:55 1010 29.83 839 24.78 -2.1 28.3 55 -9.9 14.1
02:00 1010 29.83 839 24.78 -2.2 28 56 -9.9 14.1
02:05 1010 29.83 839 24.78 -2.3 27.8 57 -9.8 14.4
02:10 1010 29.83 839 24.78 -2.5 27.5 57 -9.9 14.1
02:15 1010 29.83 839 24.78 -2.8 26.9 57 -10.2 13.7
02:20 1010 29.83 839 24.78 -3 26.5 57 -10.4 13.3
02:25 1010 29.83 839 24.78 -2.9 26.7 56 -10.5 13
02:30 1010 29.83 839 24.78 -2.7 27.2 56 -10.4 13.4
02:35 1010 29.83 839 24.78 -2.6 27.4 55 -10.3 13.4
02:40 1010 29.83 839 24.78 -2.7 27.1 56 -10.3 13.4
02:45 1010 29.83 839 24.78 -3 26.7 57 -10.3 13.4
02:50 1010 29.83 839 24.78 -3.2 26.2 58 -10.4 13.2
02:55 1010 29.83 839 24.78 -3.2 26.3 56 -10.7 12.7
03:00 1010 29.83 839 24.78 -2.8 27 56 -10.4 13.2
03:05 1010 29.83 839 24.78 -2.4 27.7 54 -10.4 13.2
03:10 1010 29.83 839 24.78 -2.4 27.7 55 -10.3 13.4
03:15 1010 29.83 839 24.78 -2.5 27.4 56 -10.2 13.7
03:20 1010 29.83 839 24.78 -3.1 26.5 58 -10.2 13.6
03:25 1010 29.83 839 24.78 -3.2 26.3 58 -10.4 13.3
03:30 1010 29.83 839 24.78 -3.2 26.2 58 -10.3 13.4
03:35 1010 29.83 839 24.78 -3 26.5 57 -10.4 13.3
03:40 1010 29.83 839 24.78 -3.2 26.3 58 -10.3 13.4
03:45 1010 29.83 839 24.78 -3.2 26.2 58 -10.4 13.3
03:50 1010 29.83 839 24.78 -3.2 26.2 57 -10.6 13
03:55 1010 29.83 839 24.78 -3 26.6 57 -10.5 13.2
04:00 1010 29.83 839 24.78 -2.9 26.7 56 -10.4 13.2
04:05 1010 29.83 839 24.78 -3 26.6 57 -10.4 13.3
04:10 1010 29.83 839 24.78 -3 26.5 57 -10.4 13.2
04:15 1010 29.83 839 24.78 -3 26.6 57 -10.4 13.4
04:20 1010 29.83 839 24.78 -3.1 26.5 57 -10.4 13.4
04:25 1010 29.83 839 24.78 -3.1 26.5 57 -10.4 13.2
04:30 1010 29.83 839 24.78 -2.8 26.9 56 -10.4 13.3
04:35 1010 29.83 839 24.78 -2.8 26.9 57 -10.2 13.6
04:40 1010 29.83 839 24.78 -3.2 26.3 59 -10.2 13.7
04:45 1010 29.83 839 24.78 -3.4 25.9 58 -10.5 13
04:50 1010 29.83 839 24.78 -3.2 26.2 59 -10.2 13.6
04:55 1010 29.83 839 24.78 -3.7 25.4 60 -10.3 13.5
05:00 1010 29.83 839 24.78 -3.9 25 61 -10.4 13.2
05:05 1010 29.83 839 24.78 -4.1 24.6 62 -10.4 13.3
05:10 1010 29.83 839 24.78 -4.3 24.2 62 -10.5 13.1
05:15 1010 29.83 839 24.78 -4.3 24.2 62 -10.5 13.1
05:20 1010 29.83 839 24.78 -4.1 24.6 61 -10.5 13.1
05:25 1010 29.83 839 24.78 -4 24.8 61 -10.5 13.2
05:30 1010 29.83 839 24.78 -4 24.8 61 -10.5 13.1
05:35 1010 29.83 839 24.78 -4.1 24.7 61 -10.6 12.9
05:40 1010 29.83 839 24.78 -4.1 24.7 62 -10.4 13.4
05:45 1010 29.83 839 24.78 -4.3 24.3 62 -10.5 13.1
05:50 1010 29.83 839 24.78 -4 24.8 62 -10.3 13.5
05:55 1010 29.83 839 24.78 -4.2 24.4 63 -10.2 13.6
06:00 1010 29.83 839 24.78 -4.5 23.9 63 -10.5 13
06:05 1010 29.83 839 24.78 -4.4 24.2 62 -10.6 13
06:10 1010 29.83 839 24.78 -4.7 23.6 64 -10.5 13.2
06:15 1010 29.83 839 24.78 -5.2 22.6 66 -10.7 12.7
06:20 1010 29.83 839 24.78 -5.4 22.4 66 -10.7 12.7
06:25 1010 29.83 839 24.78 -5.1 22.8 64 -10.9 12.4
06:30 1010 29.83 839 24.78 -4.8 23.4 63 -10.8 12.6
06:35 1010 29.83 839 24.78 -4.7 23.5 64 -10.6 12.9
06:40 1010 29.83 839 24.78 -5.1 22.8 67 -10.4 13.3
06:45 1010 29.83 839 24.78 -5.6 22 68 -10.6 12.9
06:50 1010 29.83 839 24.78 -5.2 22.7 66 -10.5 13.1
06:55 1010 29.83 839 24.78 -4.7 23.5 64 -10.4 13.2
07:00 1010 29.83 839 24.78 -4.5 23.8 64 -10.3 13.5
07:05 1010 29.83 839 24.78 -4.5 24 63 -10.4 13.2
07:10 1010 29.83 839 24.78 -4.5 24 64 -10.3 13.5
07:15 1010 29.83 839 24.78 -4.3 24.3 63 -10.4 13.3
07:20 1010 29.83 839 24.78 -4.5 23.9 63 -10.4 13.2
07:25 1010 29.83 839 24.78 -4.3 24.3 62 -10.4 13.2
07:30 1010 29.83 839 24.78 -4.2 24.5 63 -10.3 13.5
07:35 1010 29.83 839 24.78 -4.6 23.7 66 -10 14
07:40 1010 29.83 839 24.78 -4.5 23.8 62 -10.7 12.7
07:45 1010 29.83 839 24.78 -4.2 24.5 62 -10.4 13.2
07:50 1010 29.83 839 24.78 -3.7 25.4 60 -10.3 13.4
07:55 1010 29.83 839 24.78 -3.7 25.3 61 -10.3 13.5
08:00 1010 29.83 839 24.78 -3.6 25.5 59 -10.5 13.1
08:05 1010 29.83 839 24.78 -3.2 26.3 58 -10.3 13.4
08:10 1010 29.83 839 24.78 -3.2 26.3 58 -10.3 13.5
08:15 1010 29.83 839 24.78 -3 26.6 57 -10.3 13.4
08:20 1010 29.83 839 24.78 -3.1 26.4 58 -10.3 13.4
08:25 1010 29.83 839 24.78 -3.2 26.3 58 -10.3 13.5
08:30 1010 29.83 839 24.78 -3 26.6 57 -10.3 13.4
08:35 1010 29.83 839 24.78 -2.6 27.3 56 -10.2 13.7
08:40 1010 29.83 839 24.78 -1.9 28.7 52 -10.6 13
08:45 1010 29.83 840 24.81 -1.4 29.5 50 -10.4 13.3
08:50 1010 29.83 840 24.81 -0.8 30.5 49 -10.3 13.4
08:55 1010 29.83 840 24.81 -0.4 31.2 48 -10 13.9
09:00 1010 29.83 840 24.81 -0.3 31.4 48 -10.1 13.8
09:05 1010 29.83 840 24.81 -0.5 31.2 50 -9.8 14.4
09:10 1010 29.83 840 24.81 -0 32 48 -9.7 14.6
09:15 1011 29.85 840 24.81 -0.5 31.2 51 -9.5 14.9
09:20 1011 29.85 840 24.81 0.1 32.1 49 -9.5 14.9
09:25 1011 29.85 840 24.81 0.4 32.8 48 -9.4 15.1
09:30 1011 29.85 840 24.81 0.8 33.4 47 -9.2 15.4
09:35 1011 29.85 840 24.81 0.4 32.8 51 -8.6 16.5
09:40 1011 29.85 840 24.81 -0.3 31.4 51 -9.3 15.3
09:45 1011 29.85 840 24.81 -0.3 31.5 50 -9.4 15.1
09:50 1011 29.85 840 24.81 0.2 32.4 47 -9.7 14.5
09:55 1011 29.85 840 24.81 0.9 33.7 48 -8.8 16.1
10:00 1011 29.85 840 24.81 1.4 34.5 48 -8.4 16.9
10:05 1011 29.85 840 24.81 1.3 34.4 48 -8.5 16.7
10:10 1011 29.85 840 24.81 0.6 33.1 49 -8.9 16
10:15 1011 29.85 840 24.81 1.1 33.9 50 -8.3 17.1
10:20 1011 29.85 840 24.81 2.5 36.5 44 -8.6 16.5
10:25 1011 29.85 840 24.81 3.1 37.5 42 -8.6 16.5
10:30 1010 29.83 840 24.81 3.1 37.6 44 -7.9 17.8
10:35 1010 29.83 840 24.81 3 37.4 42 -8.6 16.5
10:40 1010 29.83 840 24.81 3.4 38.1 41 -8.8 16.1
10:45 1010 29.83 840 24.81 3 37.4 43 -8.5 16.7
10:50 1010 29.83 840 24.81 2.6 36.7 42 -9.1 15.7
10:55 1010 29.83 840 24.81 2.6 36.7 40 -9.5 14.9
11:00 1010 29.83 840 24.81 3.3 37.9 39 -9.4 15.1
11:05 1010 29.83 840 24.81 4 39.2 39 -8.6 16.5
11:10 1010 29.83 840 24.81 4.1 39.4 38 -8.9 15.9
11:15 1010 29.83 840 24.81 4.5 40 41 -7.8 17.9
11:20 1010 29.83 840 24.81 4.7 40.5 37 -8.7 16.4
11:25 1010 29.83 840 24.81 4.5 40 37 -8.9 16
11:30 1010 29.83 840 24.81 4.4 39.9 39 -8.3 17
11:35 1010 29.83 840 24.81 4.1 39.3 41 -8.1 17.5
11:40 1010 29.83 839 24.78 -6999 -12566.2 21 6730.3 12146.6
11:45 1010 29.83 839 24.78 8.7 47.6 26 -9.6 14.7
11:50 1010 29.83 839 24.78 6.7 44 29 -10.1 13.8
11:55 1010 29.83 839 24.78 5.4 41.8 32 -10.1 13.8
12:00 1010 29.83 839 24.78 4.7 40.5 34 -9.9 14.1
12:05 1010 29.83 839 24.78 5.6 42.1 32 -9.8 14.3
12:10 1010 29.83 839 24.78 6.4 43.6 30 -9.9 14.2
12:15 1010 29.83 839 24.78 4.8 40.7 34 -9.7 14.5
12:20 1010 29.83 839 24.78 4.8 40.7 34 -9.7 14.5
12:25 1010 29.83 839 24.78 4.7 40.5 34 -9.8 14.3
12:30 1010 29.83 839 24.78 4.6 40.3 34 -10.1 13.8
12:35 1010 29.83 839 24.78 4.4 39.9 35 -9.8 14.3
12:40 1010 29.83 839 24.78 5.4 41.7 33 -9.6 14.7
12:45 1010 29.83 839 24.78 5.7 42.3 32 -9.7 14.5
12:50 1009 29.8 839 24.78 5.5 41.8 33 -9.7 14.5
12:55 1009 29.8 839 24.78 5.7 42.3 32 -9.7 14.6
13:00 1009 29.8 839 24.78 5.5 41.8 34 -9.3 15.3
13:05 1009 29.8 839 24.78 6 42.8 32 -9.3 15.2
13:10 1009 29.8 839 24.78 6.9 44.5 30 -9.4 15.2
13:15 1009 29.8 838 24.75 7.9 46.1 30 -8.9 16
13:20 1009 29.8 838 24.75 7.6 45.6 29 -9.2 15.4
13:25 1009 29.8 838 24.75 8 46.4 27 -9.7 14.5
13:30 1009 29.8 838 24.75 6.6 43.9 30 -9.8 14.3
13:35 1009 29.8 838 24.75 6.5 43.7 31 -9.4 15.1
13:40 1009 29.8 838 24.75 6.8 44.2 31 -9.2 15.5
13:45 1009 29.8 838 24.75 6.2 43.2 31 -9.5 14.8
13:50 1009 29.8 838 24.75 6.1 42.9 32 -9.3 15.3
13:55 1009 29.8 838 24.75 6.1 43 32 -9.3 15.2
14:00 1009 29.8 838 24.75 6.5 43.7 33 -8.7 16.3
14:05 1009 29.8 838 24.75 8.1 46.7 29 -8.9 15.9
14:10 1009 29.8 838 24.75 8.2 46.7 29 -8.9 16
14:15 1009 29.8 838 24.75 7.3 45.1 28 -9.9 14.1
14:20 1009 29.8 838 24.75 6.6 43.8 31 -9.6 14.8
14:25 1009 29.8 838 24.75 6 42.9 32 -9.4 15.2
14:30 1009 29.8 838 24.75 6.9 44.4 32 -8.7 16.3
14:35 1009 29.8 838 24.75 8.2 46.7 29 -8.6 16.4
14:40 1009 29.8 838 24.75 8.4 47.2 28 -8.9 15.9
14:45 1009 29.8 838 24.75 8 46.4 30 -8.5 16.6
14:50 1009 29.8 838 24.75 6.2 43.1 38 -7.1 19.2
14:55 1009 29.8 838 24.75 5.1 41.3 39 -7.9 17.9
15:00 1009 29.8 838 24.75 5.1 41.2 40 -7.4 18.7
15:05 1009 29.8 838 24.75 5.5 41.9 38 -7.9 17.8
15:10 1009 29.8 838 24.75 5.3 41.5 38 -7.8 18
15:15 1009 29.8 838 24.75 4.9 40.8 39 -7.8 17.9
15:20 1009 29.8 838 24.75 4.8 40.6 39 -7.9 17.8
15:25 1009 29.8 838 24.75 5 40.9 38 -8.3 17.1
15:30 1009 29.8 838 24.75 5.4 41.7 35 -8.8 16.2
15:35 1009 29.8 838 24.75 5.7 42.3 34 -8.8 16.2
15:40 1009 29.8 838 24.75 6 42.9 33 -9 15.7
15:45 1009 29.8 838 24.75 6.9 44.3 33 -8.1 17.3
15:50 1009 29.8 838 24.75 7.6 45.8 32 -8 17.7
15:55 1009 29.8 838 24.75 7.9 46.3 31 -8 17.6
16:00 1009 29.8 838 24.75 7.7 45.8 33 -7.7 18.2
16:05 1009 29.8 838 24.75 7.4 45.2 33 -7.9 17.8
16:10 1009 29.8 838 24.75 7 44.7 34 -7.8 18
16:15 1009 29.8 838 24.75 7.5 45.6 33 -7.5 18.5
16:20 1009 29.8 838 24.75 8.1 46.6 32 -7.4 18.6
16:25 1009 29.8 838 24.75 8.5 47.3 30 -8.1 17.5
16:30 1009 29.8 838 24.75 8.1 46.5 31 -8 17.6
16:35 1009 29.8 838 24.75 7.7 45.8 32 -7.9 17.8
16:40 1009 29.8 838 24.75 7.2 45 32 -8.3 17.1
16:45 1009 29.8 838 24.75 6.8 44.2 32 -8.6 16.5
16:50 1009 29.8 838 24.75 6.5 43.7 34 -8.3 17.1
16:55 1008 29.77 838 24.75 6.8 44.2 34 -8.2 17.3
17:00 1008 29.77 838 24.75 6.5 43.7 35 -7.8 18
17:05 1008 29.77 838 24.75 6.6 43.8 34 -8 17.5
17:10 1008 29.77 838 24.75 6.6 43.9 34 -8.1 17.5
17:15 1008 29.77 838 24.75 7 44.5 33 -8.1 17.5
17:20 1008 29.77 838 24.75 7.5 45.5 32 -8.1 17.5
17:25 1008 29.77 838 24.75 7.6 45.7 32 -8 17.6
17:30 1008 29.77 838 24.75 7.7 45.9 32 -8 17.6
17:35 1008 29.77 838 24.75 7.6 45.7 32 -8 17.7
17:40 1008 29.77 838 24.75 7.1 44.7 33 -8 17.6
17:45 1008 29.77 838 24.75 6.3 43.3 35 -8.1 17.4
17:50 1009 29.8 838 24.75 5.8 42.4 35 -8.4 16.8
17:55 1009 29.8 838 24.75 5.6 42.1 36 -8.4 17
18:00 1009 29.8 838 24.75 5.3 41.6 38 -7.9 17.7
18:05 1009 29.8 838 24.75 5.2 41.3 39 -7.5 18.5
18:10 1009 29.8 838 24.75 5 41 40 -7.4 18.6
18:15 1009 29.8 838 24.75 4.7 40.5 42 -7.1 19.2
18:20 1009 29.8 838 24.75 4.6 40.3 42 -7.1 19.2
18:25 1009 29.8 838 24.75 4.5 40 42 -7.2 19
18:30 1009 29.8 838 24.75 4.2 39.6 45 -6.7 19.9
18:35 1009 29.8 838 24.75 3.1 37.6 50 -6.5 20.4
18:40 1009 29.8 838 24.75 1.9 35.5 53 -6.6 20.2
18:45 1009 29.8 838 24.75 1.6 34.8 54 -6.7 20
18:50 1009 29.8 838 24.75 1.4 34.6 54 -6.9 19.6
18:55 1009 29.8 838 24.75 1.3 34.3 55 -6.9 19.6
19:00 1009 29.8 838 24.75 1.1 33.9 55 -7 19.4
19:05 1009 29.8 838 24.75 0.8 33.5 56 -7.1 19.2
19:10 1009 29.8 838 24.75 0.5 32.9 57 -7.1 19.1
19:15 1009 29.8 838 24.75 0.2 32.4 58 -7.2 19.1
19:20 1009 29.8 838 24.75 0.2 32.3 56 -7.5 18.4
19:25 1009 29.8 838 24.75 0.8 33.5 53 -7.6 18.4
19:30 1009 29.8 838 24.75 1.2 34.2 52 -7.6 18.4
19:35 1009 29.8 838 24.75 1.4 34.6 50 -7.9 17.8
19:40 1009 29.8 838 24.75 1.6 35 49 -7.9 17.7
19:45 1009 29.8 838 24.75 1.4 34.6 50 -7.9 17.7
19:50 1009 29.8 838 24.75 1.1 34 51 -8 17.6
19:55 1009 29.8 838 24.75 1.4 34.5 49 -8.3 17.1
20:00 1009 29.8 838 24.75 1.8 35.2 48 -8.1 17.4
20:05 1009 29.8 838 24.75 1.8 35.2 48 -8.2 17.3
20:10 1009 29.8 838 24.75 1.8 35.3 47 -8.2 17.2
20:15 1009 29.8 838 24.75 1.7 35.1 48 -8.1 17.4
20:20 1009 29.8 838 24.75 1.6 34.8 49 -7.9 17.7
20:25 1009 29.8 838 24.75 1.1 34 51 -7.8 17.9
20:30 1009 29.8 838 24.75 0.6 33.1 53 -7.8 17.9
20:35 1009 29.8 838 24.75 0.4 32.7 54 -7.8 18
20:40 1009 29.8 838 24.75 0.4 32.7 54 -7.9 17.8
20:45 1009 29.8 838 24.75 0.6 33 54 -7.8 17.9
20:50 1009 29.8 838 24.75 0.7 33.3 53 -7.7 18.1
20:55 1009 29.8 838 24.75 0.6 33.1 53 -7.8 18
21:00 1009 29.8 838 24.75 0.5 33 53 -7.8 17.9
21:05 1009 29.8 838 24.75 0.5 32.9 54 -7.8 18
21:10 1009 29.8 838 24.75 0.3 32.5 55 -7.8 17.9
21:15 1009 29.8 838 24.75 0.2 32.4 55 -7.8 17.9
21:20 1009 29.8 838 24.75 0.1 32.1 56 -7.8 18
21:25 1009 29.8 838 24.75 -0.1 31.9 56 -7.8 17.9
21:30 1009 29.8 838 24.75 0 32 56 -7.8 18
21:35 1009 29.8 838 24.75 -0.1 31.8 57 -7.7 18.2
21:40 1009 29.8 838 24.75 -0.4 31.4 57 -7.8 17.9
21:45 1009 29.8 838 24.75 -0.4 31.2 58 -7.8 18
21:50 1009 29.8 838 24.75 -0.6 30.9 58 -7.8 17.9
21:55 1009 29.8 838 24.75 -0.7 30.7 59 -7.8 18
22:00 1009 29.8 838 24.75 -0.7 30.7 58 -7.9 17.7
22:05 1009 29.8 838 24.75 -0.6 31 58 -7.9 17.7
22:10 1009 29.8 838 24.75 -0.1 31.8 56 -7.8 17.9
22:15 1009 29.8 838 24.75 -0.4 31.4 57 -7.9 17.8
22:20 1009 29.8 838 24.75 -0.6 30.9 58 -8 17.7
22:25 1009 29.8 838 24.75 -0.6 30.9 58 -8 17.6
22:30 1009 29.8 838 24.75 -0.6 31 57 -8 17.6
22:35 1009 29.8 838 24.75 -0.7 30.8 58 -8 17.7
22:40 1009 29.8 838 24.75 -0.7 30.7 58 -8 17.5
22:45 1009 29.8 838 24.75 -0.8 30.6 58 -8.1 17.5
22:50 1009 29.8 838 24.75 -0.9 30.3 58 -8.1 17.4
22:55 1009 29.8 838 24.75 -1 30.2 59 -8.1 17.4
23:00 1009 29.8 839 24.78 -1 30.1 59 -8 17.6
23:05 1009 29.8 839 24.78 -1.1 30 59 -8 17.5
23:10 1009 29.8 839 24.78 -1 30.1 59 -8 17.6
23:15 1009 29.8 839 24.78 -1 30.3 59 -8 17.6
23:20 1009 29.8 839 24.78 -0.9 30.4 59 -8 17.6
23:25 1009 29.8 839 24.78 -0.8 30.6 58 -8 17.7
23:30 1009 29.8 839 24.78 -0.9 30.4 58 -8.1 17.5
23:35 1009 29.8 839 24.78 -0.9 30.3 58 -8.1 17.4
23:40 1009 29.8 839 24.78 -0.8 30.5 58 -8 17.5
23:45 1009 29.8 839 24.78 -0.6 30.9 57 -8 17.5
23:50 1010 29.83 839 24.78 -0.5 31.1 57 -8.1 17.4
23:55 1010 29.83 839 24.78 -0.5 31.1 56 -8.2 17.3
24:00 1010 29.83 839 24.78 -0.8 30.6 57 -8.2 17.3